Terminal Aerodrome Forecast
Issued by NWS

Home | Current Version | Previous Version | Text Only | Print | Product List | Glossary On
Versions: 1 2 3 4 5 6 7 8 9 10 11 12 13 14 15 16 17 18 19 20 21 22 23 24 25 26 27 28 29 30 31
848
FTUS41 KPBZ 240153 AAA
TAFLBE
TAF AMD
KLBE 240153Z 2402/2424 24010KT P6SM BKN035
     FM240400 25010KT P6SM OVC020
     FM240600 25008KT P6SM OVC010
     FM241200 VRB03KT 3SM -SHRA BR OVC008
     FM241400 04005KT 2SM -SHRA BR OVC008=

USA.gov is the U.S. government's official web portal to all federal, state and local government web resources and services.